Time;durP1;ratioP1;P1;durP2;ratioP2;P2;SDS_P1;SDS_P2;PMS_P1;PMS_P2;Temp;Humidity;BMP_temperature;BMP_pressure;BME280_temperature;BME280_humidity;BME280_pressure;Samples;Min_cycle;Max_cycle;Signal;HPM_P1;HPM_P2
2022/07/20 00:01:36;;;;;;;7.10;3.35;;;;;;;18.38;53.88;99963.44;4972197;28;20023;-80
2022/07/20 00:04:03;;;;;;;4.65;3.08;;;;;;;18.28;54.58;99970.56;4972553;28;20071;-79
2022/07/20 00:06:29;;;;;;;7.97;4.03;;;;;;;17.92;55.79;99969.84;4970394;28;20030;-80
2022/07/20 00:11:38;;;;;;;6.35;3.05;;;;;;;17.81;56.56;99952.66;4972501;28;20037;-80
2022/07/20 00:14:04;;;;;;;7.82;3.28;;;;;;;17.59;56.84;99952.19;4972235;28;20105;-80
2022/07/20 00:16:32;;;;;;;7.43;3.60;;;;;;;17.73;56.65;99956.50;4970910;28;20034;-80
2022/07/20 00:18:57;;;;;;;9.82;3.50;;;;;;;17.58;56.64;99938.41;4972704;28;20027;-79
2022/07/20 00:21:23;;;;;;;10.20;3.30;;;;;;;17.44;56.82;99953.88;4971462;28;20030;-80
2022/07/20 00:23:50;;;;;;;5.63;3.22;;;;;;;17.05;58.04;99942.50;4985204;28;20026;-80
2022/07/20 00:26:15;;;;;;;5.20;3.47;;;;;;;16.76;58.67;99934.13;4971808;28;20025;-80
2022/07/20 00:28:41;;;;;;;4.47;3.67;;;;;;;16.93;58.06;99949.03;4970281;28;20390;-80
2022/07/20 00:31:07;;;;;;;8.32;3.47;;;;;;;16.91;57.88;99952.25;4972221;28;20110;-79
2022/07/20 00:33:33;;;;;;;6.78;3.95;;;;;;;16.73;58.90;99962.28;4986632;28;20106;-80
2022/07/20 00:35:59;;;;;;;11.45;3.42;;;;;;;16.73;59.01;99967.94;4986177;28;20035;-79
2022/07/20 00:38:24;;;;;;;3.80;3.35;;;;;;;16.81;58.50;99969.75;4971594;28;20026;-80
2022/07/20 00:40:50;;;;;;;5.82;3.50;;;;;;;17.07;57.47;99968.38;4972129;28;20061;-79
2022/07/20 00:43:16;;;;;;;7.75;3.92;;;;;;;17.41;56.70;99977.25;4970428;28;20418;-80
2022/07/20 00:45:42;;;;;;;7.30;3.70;;;;;;;17.53;56.49;99982.78;4970510;28;20105;-79
2022/07/20 00:48:07;;;;;;;3.65;3.30;;;;;;;17.33;56.92;99966.97;4975255;28;20030;-80
2022/07/20 00:50:33;;;;;;;8.38;3.88;;;;;;;17.24;57.09;99975.66;4974994;28;20055;-80
2022/07/20 00:52:59;;;;;;;6.68;3.72;;;;;;;17.20;57.55;99971.94;4974177;28;20478;-79
2022/07/20 00:55:25;;;;;;;13.68;4.72;;;;;;;17.36;57.14;99969.88;4975590;28;20043;-80
2022/07/20 00:57:50;;;;;;;9.00;4.63;;;;;;;17.54;56.72;99963.78;4974028;28;20030;-80
2022/07/20 01:00:16;;;;;;;5.32;4.07;;;;;;;17.47;57.19;99961.63;4975680;28;20030;-80
2022/07/20 01:02:42;;;;;;;6.60;4.13;;;;;;;17.64;56.66;99960.38;4988882;28;20070;-79
2022/07/20 01:05:14;;;;;;;9.80;4.65;;;;;;;17.61;56.73;99960.28;4972290;28;20089;-79
2022/07/20 01:07:44;;;;;;;9.48;4.88;;;;;;;17.46;57.08;99957.16;4974603;28;20027;-80
2022/07/20 01:10:11;;;;;;;6.15;4.13;;;;;;;17.63;56.76;99957.94;4990582;28;20485;-79
2022/07/20 01:12:38;;;;;;;6.72;4.57;;;;;;;17.62;56.41;99947.81;4975218;28;20027;-80
2022/07/20 01:15:07;;;;;;;7.55;4.47;;;;;;;17.52;56.94;99949.19;4990426;28;20037;-80
2022/07/20 01:17:33;;;;;;;7.22;3.97;;;;;;;17.59;56.65;99962.69;4974179;28;20049;-79
2022/07/20 01:19:58;;;;;;;10.52;5.53;;;;;;;17.63;56.61;99960.75;4974531;28;20477;-79
2022/07/20 01:22:24;;;;;;;12.75;4.38;;;;;;;17.72;56.47;99957.69;4975349;28;20058;-80
2022/07/20 01:24:49;;;;;;;7.30;4.95;;;;;;;17.63;56.51;99949.44;4973543;28;20557;-80
2022/07/20 01:27:15;;;;;;;8.98;4.45;;;;;;;17.80;56.05;99951.81;4974946;28;20034;-80
2022/07/20 01:29:40;;;;;;;17.25;4.10;;;;;;;17.82;56.29;99952.25;4975243;28;20046;-80
2022/07/20 01:32:06;;;;;;;21.60;4.72;;;;;;;17.89;55.71;99950.78;4974894;28;20035;-80
2022/07/20 01:34:31;;;;;;;14.20;5.53;;;;;;;18.08;55.26;99953.59;4987588;28;20477;-80
2022/07/20 01:36:57;;;;;;;10.00;3.88;;;;;;;18.35;54.67;99953.72;4975168;28;20457;-79
2022/07/20 01:39:22;;;;;;;11.30;4.65;;;;;;;18.27;55.25;99949.09;4974900;28;20045;-80
2022/07/20 01:41:52;;;;;;;5.57;4.07;;;;;;;18.29;55.19;99949.53;4989877;28;20409;-80
2022/07/20 01:44:21;;;;;;;10.00;4.43;;;;;;;18.33;55.06;99958.91;4974895;28;20026;-80
2022/07/20 01:46:48;;;;;;;11.20;4.57;;;;;;;18.50;54.75;99963.25;4974479;28;20425;-80
2022/07/20 01:49:14;;;;;;;5.38;3.85;;;;;;;18.40;55.34;99960.25;4972697;28;21582;-80
2022/07/20 01:51:40;;;;;;;4.95;3.78;;;;;;;17.92;55.57;99958.50;4989132;28;20569;-79
2022/07/20 01:54:06;;;;;;;8.15;3.97;;;;;;;17.47;56.93;99966.47;4974310;28;20038;-79
2022/07/20 01:56:31;;;;;;;11.70;4.82;;;;;;;17.06;58.14;99952.63;4989298;28;20474;-79
2022/07/20 01:58:57;;;;;;;12.05;5.05;;;;;;;17.18;58.23;99960.16;4988695;28;20122;-80
2022/07/20 02:01:22;;;;;;;10.82;4.53;;;;;;;17.05;58.22;99951.00;4989357;28;20122;-80
2022/07/20 02:03:48;;;;;;;8.63;5.05;;;;;;;17.11;58.32;99960.81;4988553;28;20039;-80
2022/07/20 02:06:13;;;;;;;5.85;4.00;;;;;;;17.01;58.15;99955.72;4973345;28;20126;-79
2022/07/20 02:08:39;;;;;;;6.90;3.88;;;;;;;16.93;57.96;99955.53;4973150;28;20031;-79
2022/07/20 02:11:04;;;;;;;8.07;4.53;;;;;;;16.81;58.78;99962.09;4973130;28;20065;-79
2022/07/20 02:13:30;;;;;;;5.90;4.10;;;;;;;16.63;59.07;99961.66;4972987;28;20089;-80
2022/07/20 02:18:39;;;;;;;8.52;4.13;;;;;;;16.76;59.07;99970.03;4973659;28;20066;-80
2022/07/20 02:21:05;;;;;;;11.82;4.60;;;;;;;16.47;59.60;99955.19;4974219;28;20030;-79
2022/07/20 02:23:30;;;;;;;7.70;5.10;;;;;;;16.46;60.13;99954.34;4971418;28;20042;-78
2022/07/20 02:25:56;;;;;;;6.97;4.00;;;;;;;16.53;59.73;99959.38;4988533;28;20054;-78
2022/07/20 02:28:22;;;;;;;13.30;4.80;;;;;;;16.46;59.92;99954.34;4973187;28;20942;-79
2022/07/20 02:30:47;;;;;;;6.47;4.30;;;;;;;16.56;59.78;99964.31;4973876;28;20162;-79
2022/07/20 02:33:13;;;;;;;11.98;5.38;;;;;;;16.70;59.37;99961.00;4972430;28;20547;-79
2022/07/20 02:35:38;;;;;;;14.10;4.97;;;;;;;16.80;58.96;99951.97;4972713;28;20113;-79
2022/07/20 02:38:04;;;;;;;8.68;5.20;;;;;;;16.79;59.02;99953.16;4988885;28;20031;-79
2022/07/20 02:40:29;;;;;;;16.42;5.90;;;;;;;16.54;59.73;99958.19;4987746;28;20462;-79
2022/07/20 02:42:55;;;;;;;18.90;6.63;;;;;;;16.47;60.14;99955.19;4970370;28;20035;-79
2022/07/20 02:45:21;;;;;;;12.07;5.70;;;;;;;16.39;60.55;99957.81;4973231;28;20105;-79
2022/07/20 02:47:48;;;;;;;9.15;4.88;;;;;;;16.30;60.53;99956.34;4972468;28;20030;-80
2022/07/20 02:50:14;;;;;;;8.30;4.32;;;;;;;16.25;60.72;99963.91;4972204;28;20098;-79
2022/07/20 02:52:41;;;;;;;10.15;4.80;;;;;;;16.06;61.24;99946.84;4973766;28;20498;-79
2022/07/20 02:55:07;;;;;;;7.18;4.93;;;;;;;16.16;61.43;99965.25;4987942;28;20014;-79
2022/07/20 02:57:33;;;;;;;7.75;4.43;;;;;;;16.31;61.03;99964.47;4973427;28;20387;-79
2022/07/20 02:59:59;;;;;;;14.52;4.82;;;;;;;16.24;61.06;99961.44;4971671;28;20023;-79
2022/07/20 03:02:25;;;;;;;8.63;4.70;;;;;;;16.47;60.06;99960.84;4988486;28;20433;-79
2022/07/20 03:04:50;;;;;;;15.13;4.80;;;;;;;16.47;60.42;99963.66;4971820;28;20105;-79
2022/07/20 03:07:16;;;;;;;5.25;4.13;;;;;;;16.16;61.03;99957.59;4971730;28;20556;-79
2022/07/20 03:09:42;;;;;;;13.32;5.10;;;;;;;16.08;61.14;99964.22;4972303;28;20042;-79
2022/07/20 03:12:08;;;;;;;9.90;4.55;;;;;;;16.09;61.22;99958.25;4988097;28;20514;-80
2022/07/20 03:14:34;;;;;;;13.27;5.00;;;;;;;16.19;60.97;99959.69;4987284;28;20026;-79
2022/07/20 03:17:00;;;;;;;24.25;5.95;;;;;;;16.30;60.88;99957.19;4988048;28;20469;-79
2022/07/20 03:19:25;;;;;;;9.60;5.18;;;;;;;16.45;60.54;99957.56;4971736;28;20069;-79
2022/07/20 03:21:50;;;;;;;9.85;4.70;;;;;;;16.58;60.13;99956.28;4971493;28;20023;-79
2022/07/20 03:24:16;;;;;;;8.85;5.03;;;;;;;16.58;60.08;99961.94;4973085;28;20492;-79
2022/07/20 03:26:42;;;;;;;10.10;5.20;;;;;;;16.47;60.21;99953.19;4987145;28;20110;-79
2022/07/20 03:29:07;;;;;;;11.38;5.20;;;;;;;16.39;60.50;99963.44;4971004;28;20026;-78
2022/07/20 03:31:33;;;;;;;6.68;4.50;;;;;;;16.37;60.67;99963.00;4969612;28;20114;-73
2022/07/20 03:33:58;;;;;;;9.63;5.05;;;;;;;16.32;60.99;99965.28;4973719;28;20034;-77
2022/07/20 03:36:24;;;;;;;13.38;4.82;;;;;;;16.21;61.18;99959.34;4988591;28;20138;-79
2022/07/20 03:38:50;;;;;;;10.88;6.22;;;;;;;16.04;61.37;99958.47;4973159;28;20022;-82
2022/07/20 03:41:15;;;;;;;11.80;7.95;;;;;;;16.02;62.11;99960.03;4973731;28;20140;-76
2022/07/20 03:43:41;;;;;;;14.18;9.13;;;;;;;16.10;61.65;99973.97;4973293;28;20023;-76
2022/07/20 03:46:06;;;;;;;26.50;12.27;;;;;;;16.01;61.72;99973.31;4967546;28;20483;-75
2022/07/20 03:48:32;;;;;;;26.05;14.80;;;;;;;15.71;62.43;99965.19;4987192;28;20030;-76
2022/07/20 03:50:57;;;;;;;18.90;9.57;;;;;;;15.76;63.08;99964.13;4972794;28;20022;-75
2022/07/20 03:53:23;;;;;;;15.70;9.90;;;;;;;15.84;63.12;99961.16;4970915;28;20125;-75
2022/07/20 03:55:48;;;;;;;12.60;8.43;;;;;;;16.08;62.50;99967.06;4972024;28;20031;-75
2022/07/20 03:58:14;;;;;;;15.93;6.95;;;;;;;15.99;62.43;99958.75;4987151;28;20038;-75
2022/07/20 04:00:39;;;;;;;10.73;5.40;;;;;;;15.97;62.71;99952.66;4971569;28;20070;-75
2022/07/20 04:03:05;;;;;;;9.20;5.20;;;;;;;16.00;62.52;99960.38;4987573;28;20023;-75
2022/07/20 04:05:31;;;;;;;13.32;6.18;;;;;;;16.04;62.98;99966.94;4956779;28;20172;-77
2022/07/20 04:07:56;;;;;;;20.02;5.53;;;;;;;15.97;63.07;99975.22;4964224;28;20481;-80
2022/07/20 04:10:22;;;;;;;24.50;5.65;;;;;;;15.93;63.77;99980.75;4973284;28;20501;-74
2022/07/20 04:12:47;;;;;;;22.65;7.03;;;;;;;15.88;63.86;99968.88;4977019;28;20027;-76
2022/07/20 04:15:13;;;;;;;6.70;4.57;;;;;;;15.92;64.06;99978.28;4979176;28;20054;-76
2022/07/20 04:17:40;;;;;;;16.52;7.78;;;;;;;15.93;63.57;99988.41;4972399;28;20026;-76
2022/07/20 04:20:06;;;;;;;15.68;7.30;;;;;;;16.05;64.06;99991.19;4970344;28;20027;-76
2022/07/20 04:22:32;;;;;;;23.30;7.65;;;;;;;16.21;62.84;99988.38;4975861;28;20130;-78
2022/07/20 04:24:57;;;;;;;9.30;4.93;;;;;;;16.26;63.00;99992.94;4975197;28;20105;-77
2022/07/20 04:27:23;;;;;;;17.48;6.68;;;;;;;16.42;62.78;99981.69;4974678;28;20520;-77
2022/07/20 04:29:48;;;;;;;12.25;7.18;;;;;;;16.68;61.41;99994.44;4976154;28;20037;-76
2022/07/20 04:32:14;;;;;;;12.25;4.65;;;;;;;16.62;61.47;99995.91;4976764;28;20034;-81
2022/07/20 04:34:39;;;;;;;23.67;6.03;;;;;;;16.72;61.60;99986.91;4980215;28;20109;-87
2022/07/20 04:37:05;;;;;;;16.42;6.03;;;;;;;16.98;60.70;99986.31;4975587;28;20034;-74
2022/07/20 04:39:31;;;;;;;15.48;5.55;;;;;;;16.85;60.77;99973.50;4978855;28;20081;-75
2022/07/20 04:41:57;;;;;;;24.15;7.32;;;;;;;17.10;60.13;99987.44;4978254;28;20034;-74
2022/07/20 04:44:22;;;;;;;37.17;10.57;;;;;;;17.29;59.81;99977.38;4986227;28;20070;-77
2022/07/20 04:46:48;;;;;;;40.45;12.02;;;;;;;17.74;58.79;99978.78;4981738;28;20027;-79
2022/07/20 04:49:13;;;;;;;29.17;8.88;;;;;;;17.93;58.02;99989.28;4979483;28;20271;-78
2022/07/20 04:51:39;;;;;;;40.08;10.77;;;;;;;18.12;58.07;99984.00;4983091;28;20023;-78
2022/07/20 04:54:04;;;;;;;46.72;13.82;;;;;;;18.37;57.55;99981.63;4979699;28;20034;-78
2022/07/20 04:56:30;;;;;;;24.05;10.63;;;;;;;18.64;56.59;99993.03;4993901;28;20038;-79
2022/07/20 04:58:56;;;;;;;33.10;12.50;;;;;;;18.74;56.44;99988.78;4978592;28;20164;-78
2022/07/20 05:01:23;;;;;;;52.25;33.33;;;;;;;18.76;55.49;99983.53;4976337;28;20039;-78
2022/07/20 05:03:49;;;;;;;57.97;45.50;;;;;;;18.92;55.57;99983.41;4978601;28;20062;-79
2022/07/20 05:06:15;;;;;;;38.17;23.85;;;;;;;19.08;54.71;99986.94;4978201;28;20034;-79
2022/07/20 05:08:42;;;;;;;51.20;29.02;;;;;;;19.18;54.70;99988.28;4977993;28;20038;-78
2022/07/20 05:11:07;;;;;;;813.13;522.08;;;;;;;19.34;54.08;99973.16;4978579;28;20031;-81
2022/07/20 05:13:33;;;;;;;115.80;36.15;;;;;;;19.27;52.53;99985.19;4993227;28;20402;-82
2022/07/20 05:15:58;;;;;;;523.85;343.67;;;;;;;19.44;52.96;99978.16;4977621;28;20062;-77
2022/07/20 05:18:23;;;;;;;125.68;80.80;;;;;;;19.50;52.35;99975.81;4977061;28;20031;-78
2022/07/20 05:20:49;;;;;;;88.13;60.03;;;;;;;19.76;52.21;99976.94;4977932;28;20035;-78
2022/07/20 05:23:14;;;;;;;82.35;49.63;;;;;;;19.88;51.99;99976.69;4977987;28;20026;-79
2022/07/20 05:25:40;;;;;;;39.75;21.02;;;;;;;19.94;51.12;99971.53;4977535;28;20038;-87
2022/07/20 05:28:06;;;;;;;40.13;19.75;;;;;;;20.08;51.02;99979.38;4977884;28;20030;-80
2022/07/20 05:30:32;;;;;;;18.17;9.70;;;;;;;20.26;50.83;99981.63;4971394;28;20473;-75
2022/07/20 05:32:57;;;;;;;24.60;10.32;;;;;;;20.44;50.57;99976.13;4976734;28;20058;-80
2022/07/20 05:35:23;;;;;;;23.38;10.40;;;;;;;20.49;49.82;99970.06;4971172;28;20026;-76
2022/07/20 05:37:48;;;;;;;34.85;14.57;;;;;;;20.46;50.53;99971.69;4986309;28;20090;-77
2022/07/20 05:40:14;;;;;;;18.75;10.80;;;;;;;20.61;49.64;99981.16;4972429;28;20122;-78
2022/07/20 05:42:39;;;;;;;22.20;7.80;;;;;;;20.51;49.04;99978.22;4971738;28;20038;-72
2022/07/20 05:45:06;;;;;;;17.58;8.65;;;;;;;20.72;49.29;99974.75;4973637;28;20080;-75
2022/07/20 05:47:31;;;;;;;15.00;5.95;;;;;;;20.92;47.82;99975.34;4971239;28;20038;-78
2022/07/20 05:49:58;;;;;;;26.98;5.10;;;;;;;20.85;47.14;99978.94;4973350;28;20042;-80
2022/07/20 05:52:23;;;;;;;15.63;4.28;;;;;;;21.09;46.47;99981.59;4988358;28;20034;-76
2022/07/20 05:54:49;;;;;;;5.93;4.25;;;;;;;21.15;46.36;99977.97;4974476;28;20030;-76
2022/07/20 05:57:15;;;;;;;5.72;4.15;;;;;;;21.25;44.57;99976.41;4989143;28;20026;-73
2022/07/20 05:59:41;;;;;;;7.03;3.80;;;;;;;21.28;45.62;99977.66;4968488;28;20030;-74
2022/07/20 06:02:07;;;;;;;9.48;3.15;;;;;;;21.36;45.21;99985.03;4970036;28;20027;-73
2022/07/20 06:04:33;;;;;;;8.50;3.53;;;;;;;21.63;44.49;99967.69;4972134;28;20027;-73
2022/07/20 06:06:58;;;;;;;8.52;3.22;;;;;;;21.78;43.75;99974.31;4973760;28;20086;-72
2022/07/20 06:30:33;;;;;;;24.05;4.63;;;;;;;23.34;39.28;99971.66;5151829;27;20624;-73
2022/07/20 06:32:58;;;;;;;16.85;3.97;;;;;;;23.42;40.12;99967.59;5130471;27;20125;-74
2022/07/20 06:35:24;;;;;;;11.73;3.35;;;;;;;23.35;39.04;99967.59;5130752;27;20035;-76
2022/07/20 06:37:50;;;;;;;10.07;3.22;;;;;;;23.14;40.25;99963.50;5126417;27;20028;-75
2022/07/20 06:40:15;;;;;;;12.80;3.05;;;;;;;23.41;39.82;99960.25;5131228;27;20058;-74
2022/07/20 06:42:41;;;;;;;169.13;12.50;;;;;;;23.56;39.04;99966.72;5118952;27;20065;-74
2022/07/20 06:45:07;;;;;;;18.88;3.97;;;;;;;23.52;40.27;99965.09;5120377;27;20027;-75
2022/07/20 06:47:33;;;;;;;11.50;2.63;;;;;;;23.72;39.01;99954.03;5128061;27;20046;-75
2022/07/20 06:49:59;;;;;;;3.08;2.65;;;;;;;23.64;38.21;99961.78;5112092;28;20031;-74
2022/07/20 06:52:24;;;;;;;10.70;3.22;;;;;;;23.40;38.84;99964.31;5107747;28;20031;-75
2022/07/20 06:54:50;;;;;;;8.60;2.75;;;;;;;23.59;39.50;99956.50;5121225;27;20076;-75
2022/07/20 06:57:15;;;;;;;17.45;3.17;;;;;;;23.75;39.59;99960.94;5128471;27;20385;-75
2022/07/20 06:59:41;;;;;;;50.83;5.53;;;;;;;23.93;38.22;99958.81;5133681;27;20084;-74
2022/07/20 07:02:09;;;;;;;6.20;2.78;;;;;;;23.97;37.12;99951.03;5126301;28;20115;-78
2022/07/20 07:04:34;;;;;;;7.50;3.08;;;;;;;24.11;37.70;99952.22;5105896;27;20027;-74
2022/07/20 07:07:02;;;;;;;9.15;2.88;;;;;;;24.35;37.42;99953.31;5132462;27;20068;-75
2022/07/20 07:09:29;;;;;;;11.07;5.13;;;;;;;24.58;37.09;99942.53;5130324;27;20102;-75
2022/07/20 07:11:57;;;;;;;62.42;8.43;;;;;;;24.90;37.38;99947.22;5122090;28;20031;-75
2022/07/20 07:14:25;;;;;;;9.98;3.22;;;;;;;24.90;40.43;99950.06;5122180;27;20519;-74
2022/07/20 07:16:51;;;;;;;14.85;3.30;;;;;;;24.93;40.84;99934.91;5151308;27;20477;-74
2022/07/20 07:19:16;;;;;;;3.90;2.22;;;;;;;24.74;38.45;99942.81;5148522;27;20011;-75
2022/07/20 07:21:42;;;;;;;9.55;2.55;;;;;;;24.97;39.62;99943.47;5141802;27;20034;-75
2022/07/20 07:24:07;;;;;;;6.05;2.97;;;;;;;25.12;42.43;99935.56;5125803;27;20035;-74
2022/07/20 07:26:33;;;;;;;6.43;4.53;;;;;;;25.17;43.69;99932.22;5118146;28;20166;-75
2022/07/20 07:28:58;;;;;;;17.23;8.55;;;;;;;25.43;42.77;99935.63;5126926;27;20451;-74
2022/07/20 07:31:24;;;;;;;13.80;5.10;;;;;;;25.36;39.43;99933.66;5096568;28;20031;-76
2022/07/20 07:33:49;;;;;;;3.85;2.58;;;;;;;25.20;39.81;99931.38;5094375;28;20031;-73
2022/07/20 07:36:15;;;;;;;12.98;4.03;;;;;;;25.49;41.14;99937.63;5113757;28;20027;-74
2022/07/20 07:38:41;;;;;;;11.50;4.22;;;;;;;25.58;39.87;99927.72;5097513;28;20070;-74
2022/07/20 07:41:07;;;;;;;11.95;6.05;;;;;;;25.56;39.32;99941.66;5112571;28;20034;-74
2022/07/20 07:43:33;;;;;;;16.23;6.75;;;;;;;25.62;37.14;99929.31;5112750;27;20476;-74
2022/07/20 07:45:58;;;;;;;48.28;34.70;;;;;;;25.50;37.11;99927.78;5095532;28;20501;-73
2022/07/20 07:48:26;;;;;;;7.38;4.55;;;;;;;25.63;37.68;99935.81;5113850;28;20052;-73
2022/07/20 07:50:54;;;;;;;44.05;31.38;;;;;;;25.84;37.43;99922.47;5095348;28;20011;-73
2022/07/20 07:53:20;;;;;;;11.07;4.95;;;;;;;26.06;36.69;99922.97;5113126;28;20023;-73
2022/07/20 07:55:46;;;;;;;10.15;2.22;;;;;;;25.99;36.03;99918.16;5095727;28;20080;-73
2022/07/20 07:58:14;;;;;;;8.68;4.07;;;;;;;26.30;35.23;99920.22;5113768;28;20104;-74
2022/07/20 08:00:41;;;;;;;6.03;4.18;;;;;;;26.45;34.13;99920.81;5106272;28;20404;-73
2022/07/20 08:03:06;;;;;;;5.68;2.40;;;;;;;26.43;33.29;99918.38;5112494;27;20485;-73
2022/07/20 08:05:33;;;;;;;12.75;2.95;;;;;;;26.35;33.83;99916.88;5095140;27;20046;-73
2022/07/20 08:08:05;;;;;;;38.78;8.27;;;;;;;26.74;32.83;99911.75;5112719;28;20040;-73
2022/07/20 08:10:31;;;;;;;37.80;8.45;;;;;;;26.90;33.71;99911.88;5107020;27;20035;-73
2022/07/20 08:12:56;;;;;;;29.52;18.02;;;;;;;27.00;32.21;99904.31;5111090;28;20016;-73
2022/07/20 08:15:22;;;;;;;31.70;23.95;;;;;;;26.91;31.15;99909.84;5112853;28;20028;-72
2022/07/20 08:17:48;;;;;;;5.85;4.25;;;;;;;27.08;34.18;99899.25;5112586;27;20401;-78
2022/07/20 08:20:21;;;;;;;2.30;2.00;;;;;;;27.26;31.15;99907.50;5093526;27;20039;-72
2022/07/20 08:22:47;;;;;;;6.25;3.30;;;;;;;27.14;30.75;99899.56;5125423;27;20396;-73
2022/07/20 08:25:12;;;;;;;201.30;139.23;;;;;;;27.32;30.00;99908.63;5092146;27;20031;-74
2022/07/20 08:27:38;;;;;;;5.90;2.72;;;;;;;27.36;29.11;99899.97;5110576;27;20027;-72
2022/07/20 08:30:04;;;;;;;4.63;2.30;;;;;;;27.40;28.52;99900.69;5111648;28;20039;-75
2022/07/20 08:32:29;;;;;;;8.77;5.43;;;;;;;27.65;28.90;99899.38;5091175;28;20028;-74
2022/07/20 08:34:55;;;;;;;130.25;97.72;;;;;;;27.93;29.04;99899.19;5112355;28;20120;-72
2022/07/20 08:37:21;;;;;;;30.85;7.20;;;;;;;27.89;28.58;99899.28;5111966;27;20566;-73
2022/07/20 08:39:47;;;;;;;50.17;39.92;;;;;;;27.88;27.60;99898.47;5089247;28;20432;-72
2022/07/20 08:42:14;;;;;;;124.20;94.10;;;;;;;27.94;27.30;99901.63;5110837;28;20088;-75
2022/07/20 08:44:43;;;;;;;45.83;33.72;;;;;;;28.28;27.27;99888.94;5094754;28;20027;-73
2022/07/20 08:47:14;;;;;;;383.55;313.55;;;;;;;28.67;27.47;99883.47;5127670;27;20110;-73
2022/07/20 08:49:49;;;;;;;79.53;39.35;;;;;;;28.85;27.30;99888.78;5112493;27;20425;-74
2022/07/20 08:52:16;;;;;;;6.85;4.13;;;;;;;28.51;25.64;99883.50;5111795;28;20396;-73
2022/07/20 08:54:42;;;;;;;6.80;4.13;;;;;;;28.53;26.71;99886.72;5127931;27;20409;-74
2022/07/20 08:57:14;;;;;;;60.67;45.78;;;;;;;28.59;26.33;99879.16;5112129;27;20035;-72
2022/07/20 08:59:40;;;;;;;21.52;12.88;;;;;;;28.68;27.03;99867.81;5093006;28;20088;-72
2022/07/20 09:02:08;;;;;;;56.22;43.92;;;;;;;29.14;25.81;99867.06;5093140;28;20118;-75
2022/07/20 09:04:55;;;;;;;12.75;4.97;;;;;;;28.91;26.19;99876.75;5113010;27;20036;-73
2022/07/20 09:07:49;;;;;;;8.75;4.80;;;;;;;29.27;26.30;99870.00;5125793;27;20027;-76
2022/07/20 09:10:18;;;;;;;6.10;3.17;;;;;;;29.13;26.15;99874.88;5112091;27;20111;-78
2022/07/20 09:12:58;;;;;;;7.70;2.90;;;;;;;29.18;27.06;99864.88;5094153;27;20031;-78
2022/07/20 09:15:29;;;;;;;33.20;3.53;;;;;;;28.99;26.71;99858.81;5091004;28;20051;-73
2022/07/20 09:18:06;;;;;;;8.38;3.10;;;;;;;29.33;25.99;99873.91;5091121;28;20035;-75
2022/07/20 09:20:34;;;;;;;6.53;2.47;;;;;;;29.12;25.53;99864.63;5092220;28;20036;-76
2022/07/20 09:23:03;;;;;;;10.88;3.75;;;;;;;29.20;26.29;99847.97;5093286;28;20042;-74
2022/07/20 09:25:29;;;;;;;8.82;4.22;;;;;;;29.47;25.59;99835.28;5111527;27;20035;-75
2022/07/20 09:27:55;;;;;;;11.88;3.72;;;;;;;29.48;24.78;99833.19;5107102;28;20497;-78
2022/07/20 09:30:21;;;;;;;11.45;3.58;;;;;;;29.19;25.21;99829.06;5090722;28;20478;-77
2022/07/20 09:32:57;;;;;;;9.15;3.33;;;;;;;29.62;24.51;99852.13;5108706;27;20122;-78
2022/07/20 09:35:27;;;;;;;7.30;3.35;;;;;;;30.17;26.05;99845.47;5124930;27;20043;-77
2022/07/20 09:37:54;;;;;;;8.20;3.10;;;;;;;30.45;24.59;99846.59;5108696;28;20042;-75
2022/07/20 09:40:20;;;;;;;3.67;2.00;;;;;;;30.85;25.28;99851.03;5091322;28;20031;-76
2022/07/20 09:42:47;;;;;;;5.07;2.55;;;;;;;30.79;23.51;99847.94;5109210;28;20031;-78
2022/07/20 09:45:25;;;;;;;8.20;2.38;;;;;;;30.81;24.43;99848.28;5091492;28;20453;-75
2022/07/20 09:48:01;;;;;;;5.18;1.70;;;;;;;31.01;23.66;99843.47;5108031;27;20041;-73
2022/07/20 09:50:32;;;;;;;3.67;1.98;;;;;;;30.86;22.91;99848.97;5107575;28;20408;-76
2022/07/20 09:52:58;;;;;;;6.07;2.30;;;;;;;30.62;24.43;99847.25;5079144;28;20036;-76
2022/07/20 09:55:25;;;;;;;3.78;2.50;;;;;;;30.70;22.75;99838.41;5070757;28;20028;-73
2022/07/20 09:57:52;;;;;;;6.75;2.03;;;;;;;30.90;24.08;99835.22;5102588;28;20405;-73
2022/07/20 10:00:21;;;;;;;7.65;2.00;;;;;;;30.53;22.82;99835.66;5124756;27;20035;-72
2022/07/20 10:02:48;;;;;;;7.35;3.22;;;;;;;30.89;23.77;99837.31;5123765;27;20030;-73
2022/07/20 10:05:16;;;;;;;8.80;1.80;;;;;;;30.92;23.25;99824.81;5108292;28;20027;-76
2022/07/20 10:07:43;;;;;;;5.32;2.00;;;;;;;30.88;23.87;99838.56;5087875;28;20493;-74
2022/07/20 10:10:09;;;;;;;6.55;2.53;;;;;;;30.88;23.98;99824.13;5088721;28;20097;-73
2022/07/20 10:12:35;;;;;;;11.20;3.00;;;;;;;30.53;23.27;99821.22;5081464;28;20040;-72
2022/07/20 10:15:03;;;;;;;11.68;2.47;;;;;;;30.20;23.98;99809.97;5090616;28;20033;-72
2022/07/20 10:17:33;;;;;;;6.45;2.35;;;;;;;30.24;23.87;99804.88;5092640;28;20034;-76
2022/07/20 10:19:59;;;;;;;10.63;2.10;;;;;;;30.39;24.97;99802.31;5108820;28;20080;-78
2022/07/20 10:22:31;;;;;;;11.38;4.80;;;;;;;30.33;25.53;99810.75;5105113;28;20069;-81
2022/07/20 10:25:16;;;;;;;12.27;3.38;;;;;;;30.60;24.80;99797.88;5124486;28;20091;-73
2022/07/20 10:27:41;;;;;;;8.43;2.35;;;;;;;30.96;23.66;99802.38;5109081;28;20516;-74
2022/07/20 10:30:16;;;;;;;4.82;2.22;;;;;;;31.18;23.53;99794.97;5109390;28;20044;-75
2022/07/20 10:32:58;;;;;;;4.85;2.20;;;;;;;31.30;23.28;99793.34;5085621;28;20051;-72
2022/07/20 10:35:27;;;;;;;6.03;3.28;;;;;;;31.32;23.54;99796.56;5079519;28;20034;-75
2022/07/20 10:37:55;;;;;;;5.35;2.35;;;;;;;31.60;22.93;99788.84;5088865;28;20023;-74
2022/07/20 10:40:26;;;;;;;17.77;12.60;;;;;;;31.78;22.49;99782.34;5104564;28;20480;-75
2022/07/20 10:43:11;;;;;;;4.20;1.70;;;;;;;31.89;22.52;99784.03;5083942;28;20747;-75
2022/07/20 10:45:36;;;;;;;7.45;3.35;;;;;;;32.01;22.44;99780.22;5101194;28;20054;-74
2022/07/20 10:48:11;;;;;;;5.25;2.45;;;;;;;32.04;22.07;99772.69;5109439;28;20051;-74
2022/07/20 10:50:42;;;;;;;3.83;1.60;;;;;;;30.81;22.92;99766.66;5087498;28;20097;-73
2022/07/20 10:53:11;;;;;;;10.95;6.60;;;;;;;30.45;23.14;99762.16;5103866;28;20066;-74
2022/07/20 10:55:46;;;;;;;3.15;2.45;;;;;;;30.90;23.40;99760.97;5103744;28;20038;-73
2022/07/20 10:58:13;;;;;;;5.15;1.80;;;;;;;31.69;22.40;99764.16;5111575;28;20027;-74
2022/07/20 11:00:42;;;;;;;5.85;1.30;;;;;;;31.81;22.09;99760.41;5089802;28;20031;-74
2022/07/20 11:03:20;;;;;;;4.53;1.60;;;;;;;32.09;22.69;99757.59;5102001;28;20027;-74
2022/07/20 11:05:47;;;;;;;3.10;1.40;;;;;;;32.07;22.26;99754.38;5111420;27;20401;-74
2022/07/20 11:08:13;;;;;;;12.50;1.65;;;;;;;31.86;21.89;99747.41;5114276;28;20031;-74
2022/07/20 11:10:40;;;;;;;5.43;2.17;;;;;;;32.14;22.58;99747.47;5109717;28;20039;-74
2022/07/20 11:13:11;;;;;;;9.18;2.00;;;;;;;32.27;21.76;99741.53;5095023;28;20470;-74
2022/07/20 11:15:48;;;;;;;3.72;1.63;;;;;;;32.34;21.96;99739.16;5096260;28;20028;-74
2022/07/20 11:18:19;;;;;;;4.45;1.90;;;;;;;32.37;22.52;99736.59;5102642;28;20092;-74
2022/07/20 11:20:55;;;;;;;6.85;1.70;;;;;;;32.09;22.34;99737.34;5126606;27;20065;-75
2022/07/20 11:23:24;;;;;;;7.80;1.92;;;;;;;31.86;23.63;99727.97;5112520;27;20103;-74
2022/07/20 11:25:59;;;;;;;10.73;2.22;;;;;;;31.71;21.94;99733.50;5112746;27;20026;-74
2022/07/20 11:28:31;;;;;;;6.68;1.67;;;;;;;32.28;22.49;99723.69;5099202;28;20558;-75
2022/07/20 11:30:57;;;;;;;4.20;1.85;;;;;;;31.86;22.05;99725.06;5114351;28;20413;-75
2022/07/20 11:33:26;;;;;;;10.10;2.20;;;;;;;31.63;22.51;99735.09;5114522;28;20023;-75
2022/07/20 11:35:53;;;;;;;10.52;2.10;;;;;;;31.82;22.25;99726.50;5093442;28;20047;-75
2022/07/20 11:38:19;;;;;;;3.20;1.98;;;;;;;31.75;22.20;99722.59;5114405;27;20593;-77
2022/07/20 11:41:02;;;;;;;12.93;2.42;;;;;;;32.06;21.82;99715.16;5108980;27;20147;-79
2022/07/20 11:43:34;;;;;;;11.30;4.22;;;;;;;32.05;21.80;99725.13;5115043;27;20027;-77
2022/07/20 11:46:10;;;;;;;8.32;3.30;;;;;;;32.07;21.54;99713.88;5095090;28;20099;-77
2022/07/20 11:48:36;;;;;;;13.60;3.72;;;;;;;32.00;21.91;99694.75;5095211;28;20023;-76
2022/07/20 11:51:02;;;;;;;5.65;2.22;;;;;;;32.00;22.32;99699.72;5110436;27;20504;-76
2022/07/20 11:53:36;;;;;;;3.97;2.65;;;;;;;31.95;22.51;99701.16;5110919;27;20023;-77